Latest Weather Observations for St Kilda Harbour RMYS

IDV60901

Issued at 4:05 pm EDT Thursday 23 October 2014 (issued every 10 minutes, with the page automatically refreshed every 10 minutes)

About weather observations | Map of Melbourne area stations | Latest observations for Melbourne area | Other Formats
Station Details ID: 086220 Name: ST KILDA HARBOUR - RMYS Lat: -37.86 Lon: 144.96 Height: 6.4 m
Data from the previous 72 hours. | See also: Recent months for locations in Victoria
Date/Time
EDT
Tmp

°C
App
Tmp
°C
Dew
Point
°C
Rel
Hum
%
Delta-T

°C
Wind Press
QNH
hPa
Press
MSL
hPa
Rain
since
9 am
mm
Dir
 
Spd
km/h
Gust
km/h
Spd
kts
Gust
kts
23/04:00pm - - - - - SW 33 37 18 20 - - -
23/03:30pm - - - - - SW 30 33 16 18 - - -
23/03:00pm - - - - - SW 26 30 14 16 - - -
23/02:30pm - - - - - SW 22 24 12 13 - - -
23/02:00pm - - - - - SSW 22 24 12 13 - - -
23/01:30pm - - - - - S 22 26 12 14 - - -
23/01:00pm - - - - - S 24 28 13 15 - - -
23/12:30pm - - - - - S 22 26 12 14 - - -
23/12:00pm - - - - - SSW 22 26 12 14 - - -
23/11:30am - - - - - S 17 20 9 11 - - -
23/11:00am - - - - - S 20 24 11 13 - - -
23/10:30am - - - - - S 20 24 11 13 - - -
23/10:00am - - - - - S 17 19 9 10 - - -
23/09:30am - - - - - SSW 13 17 7 9 - - -
23/09:00am - - - - - S 17 19 9 10 - - -
23/08:30am - - - - - S 19 20 10 11 - - -
23/08:00am - - - - - S 20 24 11 13 - - -
23/07:30am - - - - - S 20 24 11 13 - - -
23/07:00am - - - - - S 24 28 13 15 - - -
23/06:30am - - - - - S 22 26 12 14 - - -
23/06:00am - - - - - S 26 30 14 16 - - -
23/05:30am - - - - - SSW 24 30 13 16 - - -
23/05:00am - - - - - SSW 20 24 11 13 - - -
23/04:30am - - - - - SW 22 26 12 14 - - -
23/04:00am - - - - - SW 20 24 11 13 - - -
23/03:30am - - - - - SW 20 24 11 13 - - -
23/03:00am - - - - - SW 19 24 10 13 - - -
23/02:30am - - - - - SSW 22 28 12 15 - - -
23/02:00am - - - - - SSW 20 26 11 14 - - -
23/01:30am - - - - - SW 19 24 10 13 - - -
23/01:00am - - - - - SW 17 22 9 12 - - -
23/12:30am - - - - - S 20 24 11 13 - - -
23/12:00am - - - - - S 22 30 12 16 - - -
 
Date/Time
EDT
Tmp

°C
App
Tmp
°C
Dew
Point
°C
Rel
Hum
%
Delta-T

°C
Wind Press
QNH
hPa
Press
MSL
hPa
Rain
since
9 am
mm
Dir
 
Spd
km/h
Gust
km/h
Spd
kts
Gust
kts
22/11:30pm - - - - - S 22 28 12 15 - - -
22/11:00pm - - - - - SSW 22 26 12 14 - - -
22/10:30pm - - - - - SSW 28 35 15 19 - - -
22/10:00pm - - - - - SSW 28 32 15 17 - - -
22/09:30pm - - - - - SW 22 35 12 19 - - -
22/09:00pm - - - - - SW 28 37 15 20 - - -
22/08:30pm - - - - - WSW 26 32 14 17 - - -
22/08:15pm - - - - - WSW 32 44 17 24 - - -
22/08:00pm - - - - - N 19 26 10 14 - - -
22/07:30pm - - - - - N 20 30 11 16 - - -
22/07:00pm - - - - - N 22 35 12 19 - - -
22/06:30pm - - - - - N 20 30 11 16 - - -
22/06:00pm - - - - - N 24 35 13 19 - - -
22/05:30pm - - - - - N 20 35 11 19 - - -
22/05:00pm - - - - - N 22 30 12 16 - - -
22/04:30pm - - - - - N 17 30 9 16 - - -
22/04:00pm - - - - - N 24 30 13 16 - - -
22/03:30pm - - - - - NNE 22 30 12 16 - - -
22/03:00pm - - - - - N 20 32 11 17 - - -
22/02:30pm - - - - - N 20 32 11 17 - - -
22/02:00pm - - - - - N 20 32 11 17 - - -
22/01:30pm - - - - - N 24 32 13 17 - - -
22/01:00pm - - - - - N 24 33 13 18 - - -
22/12:30pm - - - - - N 22 37 12 20 - - -
22/12:00pm - - - - - N 30 41 16 22 - - -
22/11:30am - - - - - N 32 43 17 23 - - -
22/11:16am - - - - - N 32 50 17 27 - - -
22/11:00am - - - - - N 26 39 14 21 - - -
22/10:46am - - - - - N 28 46 15 25 - - -
22/10:30am - - - - - N 39 52 21 28 - - -
22/10:00am - - - - - N 35 56 19 30 - - -
22/09:49am - - - - - N 30 50 16 27 - - -
22/09:30am - - - - - N 30 43 16 23 - - -
22/09:00am - - - - - N 30 54 16 29 - - -
22/08:54am - - - - - N 30 48 16 26 - - -
22/08:30am - - - - - N 35 48 19 26 - - -
22/08:00am - - - - - N 30 52 16 28 - - -
22/07:45am - - - - - N 30 48 16 26 - - -
22/07:30am - - - - - N 26 37 14 20 - - -
22/07:00am - - - - - N 28 43 15 23 - - -
22/06:30am - - - - - N 30 48 16 26 - - -
22/06:00am - - - - - N 28 44 15 24 - - -
22/05:30am - - - - - N 22 32 12 17 - - -
22/05:00am - - - - - NNE 19 28 10 15 - - -
22/04:30am - - - - - NNE 13 19 7 10 - - -
22/04:00am - - - - - NNE 13 17 7 9 - - -
22/03:30am - - - - - NNE 9 15 5 8 - - -
22/03:00am - - - - - NNE 6 9 3 5 - - -
22/02:30am - - - - - NNE 9 11 5 6 - - -
22/02:00am - - - - - NNE 9 11 5 6 - - -
22/01:30am - - - - - NNE 9 11 5 6 - - -
22/01:00am - - - - - NNE 7 9 4 5 - - -
22/12:30am - - - - - NNE 7 9 4 5 - - -
22/12:00am - - - - - NNE 7 9 4 5 - - -
 
Date/Time
EDT
Tmp

°C
App
Tmp
°C
Dew
Point
°C
Rel
Hum
%
Delta-T

°C
Wind Press
QNH
hPa
Press
MSL
hPa
Rain
since
9 am
mm
Dir
 
Spd
km/h
Gust
km/h
Spd
kts
Gust
kts
21/11:30pm - - - - - NE 7 11 4 6 - - -
21/11:00pm - - - - - N 4 6 2 3 - - -
21/10:30pm - - - - - NE 6 9 3 5 - - -
21/10:00pm - - - - - E 7 11 4 6 - - -
21/09:30pm - - - - - E 11 17 6 9 - - -
21/09:00pm - - - - - E 19 22 10 12 - - -
21/08:30pm - - - - - ESE 17 22 9 12 - - -
21/08:00pm - - - - - ESE 17 22 9 12 - - -
21/07:30pm - - - - - ESE 19 26 10 14 - - -
21/07:00pm - - - - - SE 22 28 12 15 - - -
21/06:30pm - - - - - SE 22 30 12 16 - - -
21/06:00pm - - - - - SSE 20 26 11 14 - - -
21/05:30pm - - - - - SSE 22 30 12 16 - - -
21/05:00pm - - - - - SSE 24 28 13 15 - - -
21/04:30pm - - - - - S 22 28 12 15 - - -
21/04:00pm - - - - - S 28 33 15 18 - - -
21/03:30pm - - - - - S 26 30 14 16 - - -
21/03:00pm - - - - - S 24 30 13 16 - - -
21/02:30pm - - - - - S 22 26 12 14 - - -
21/02:00pm - - - - - S 20 26 11 14 - - -
21/01:30pm - - - - - S 9 11 5 6 - - -
21/01:00pm - - - - - ENE 13 24 7 13 - - -
21/12:30pm - - - - - NE 13 24 7 13 - - -
21/12:00pm - - - - - NE 9 22 5 12 - - -
21/11:30am - - - - - ENE 15 22 8 12 - - -
21/11:00am - - - - - ENE 13 20 7 11 - - -
21/10:30am - - - - - NE 9 15 5 8 - - -
21/10:00am - - - - - NE 7 15 4 8 - - -
21/09:30am - - - - - NE 9 13 5 7 - - -
21/09:00am - - - - - ENE 9 13 5 7 - - -
21/08:30am - - - - - NE 9 11 5 6 - - -
21/08:00am - - - - - NE 9 13 5 7 - - -
21/07:30am - - - - - NE 7 9 4 5 - - -
21/07:00am - - - - - NE 7 9 4 5 - - -
21/06:30am - - - - - NNE 7 9 4 5 - - -
21/06:00am - - - - - NNE 6 9 3 5 - - -
21/05:30am - - - - - NE 4 7 2 4 - - -
21/05:00am - - - - - N 6 7 3 4 - - -
21/04:30am - - - - - N 7 9 4 5 - - -
21/04:00am - - - - - N 7 11 4 6 - - -
21/03:30am - - - - - NNW 7 9 4 5 - - -
21/03:00am - - - - - NNW 7 13 4 7 - - -
21/02:30am - - - - - ENE 7 11 4 6 - - -
21/02:00am - - - - - ENE 7 11 4 6 - - -
21/01:30am - - - - - ENE 6 11 3 6 - - -
21/01:00am - - - - - ENE 9 15 5 8 - - -
21/12:30am - - - - - ENE 11 19 6 10 - - -
21/12:00am - - - - - E 13 20 7 11 - - -
 
Date/Time
EDT
Tmp

°C
App
Tmp
°C
Dew
Point
°C
Rel
Hum
%
Delta-T

°C
Wind Press
QNH
hPa
Press
MSL
hPa
Rain
since
9 am
mm
Dir
 
Spd
km/h
Gust
km/h
Spd
kts
Gust
kts
20/11:30pm - - - - - E 13 20 7 11 - - -
20/11:00pm - - - - - E 19 28 10 15 - - -
20/10:30pm - - - - - ESE 19 30 10 16 - - -
20/10:00pm - - - - - SE 19 28 10 15 - - -
20/09:30pm - - - - - SE 20 28 11 15 - - -
20/09:00pm - - - - - SE 24 33 13 18 - - -
20/08:30pm - - - - - SE 24 37 13 20 - - -
20/08:00pm - - - - - SE 24 39 13 21 - - -
20/07:30pm - - - - - SE 26 39 14 21 - - -
20/07:00pm - - - - - SE 30 46 16 25 - - -
20/06:30pm - - - - - SE 33 43 18 23 - - -
20/06:00pm - - - - - SE 28 39 15 21 - - -
20/05:30pm - - - - - SE 30 43 16 23 - - -
20/05:00pm - - - - - SE 30 41 16 22 - - -
20/04:30pm - - - - - SSE 24 35 13 19 - - -

Latest Capital City Observations: Canberra | Sydney | Melbourne | Brisbane | Adelaide | Perth | Hobart | Darwin

Other Formats:

Comma delimited format used in spreadsheet applications
http://www.bom.gov.au/fwo/IDV60901/IDV60901.95864.axf

JavaScript Object Notation format (JSON) in row-major order
http://www.bom.gov.au/fwo/IDV60901/IDV60901.95864.json